sensor_id;sensor_type;location;lat;lon;timestamp;pressure;altitude;pressure_sealevel;temperature;humidity
76637;BME280;65532;52.124;5.480;2023-02-15T00:01:48;102966.06;;;0.01;71.42
76637;BME280;65532;52.124;5.480;2023-02-15T00:04:16;102958.94;;;0.02;70.85
76637;BME280;65532;52.124;5.480;2023-02-15T00:06:43;102958.28;;;-0.02;70.04
76637;BME280;65532;52.124;5.480;2023-02-15T00:09:10;102951.25;;;-0.03;68.23
76637;BME280;65532;52.124;5.480;2023-02-15T00:11:38;102947.53;;;-0.01;65.54
76637;BME280;65532;52.124;5.480;2023-02-15T00:14:22;102950.31;;;-0.02;64.37
76637;BME280;65532;52.124;5.480;2023-02-15T00:16:50;102943.28;;;-0.03;63.24
76637;BME280;65532;52.124;5.480;2023-02-15T00:19:18;102942.31;;;-0.02;62.31
76637;BME280;65532;52.124;5.480;2023-02-15T00:21:46;102940.41;;;0.00;61.85
76637;BME280;65532;52.124;5.480;2023-02-15T00:24:15;102943.81;;;0.02;61.23
76637;BME280;65532;52.124;5.480;2023-02-15T00:26:42;102937.66;;;0.02;60.05
76637;BME280;65532;52.124;5.480;2023-02-15T00:29:10;102939.53;;;-0.01;59.56
76637;BME280;65532;52.124;5.480;2023-02-15T00:31:37;102937.00;;;-0.02;58.99
76637;BME280;65532;52.124;5.480;2023-02-15T00:36:32;102941.91;;;0.04;57.58
76637;BME280;65532;52.124;5.480;2023-02-15T00:38:59;102927.63;;;0.05;56.90
76637;BME280;65532;52.124;5.480;2023-02-15T00:41:25;102932.94;;;0.05;55.31
76637;BME280;65532;52.124;5.480;2023-02-15T00:43:52;102933.91;;;0.04;54.06
76637;BME280;65532;52.124;5.480;2023-02-15T00:46:18;102923.91;;;-0.05;53.87
76637;BME280;65532;52.124;5.480;2023-02-15T00:48:45;102917.50;;;-0.03;53.04
76637;BME280;65532;52.124;5.480;2023-02-15T00:51:11;102914.00;;;-0.03;53.17
76637;BME280;65532;52.124;5.480;2023-02-15T00:53:38;102912.28;;;-0.04;52.93
76637;BME280;65532;52.124;5.480;2023-02-15T00:56:04;102906.97;;;-0.04;51.84
76637;BME280;65532;52.124;5.480;2023-02-15T00:58:31;102910.38;;;-0.02;51.05
76637;BME280;65532;52.124;5.480;2023-02-15T01:01:04;102916.25;;;-0.10;51.21
76637;BME280;65532;52.124;5.480;2023-02-15T01:03:32;102909.47;;;-0.26;53.51
76637;BME280;65532;52.124;5.480;2023-02-15T01:05:59;102916.00;;;-0.31;55.16
76637;BME280;65532;52.124;5.480;2023-02-15T01:08:26;102912.16;;;-0.39;58.36
76637;BME280;65532;52.124;5.480;2023-02-15T01:10:53;102915.16;;;-0.44;62.09
76637;BME280;65532;52.124;5.480;2023-02-15T01:13:19;102919.19;;;-0.51;65.51
76637;BME280;65532;52.124;5.480;2023-02-15T01:15:53;102906.72;;;-0.50;67.18
76637;BME280;65532;52.124;5.480;2023-02-15T01:18:20;102911.31;;;-0.52;68.39
76637;BME280;65532;52.124;5.480;2023-02-15T01:20:48;102915.16;;;-0.56;69.16
76637;BME280;65532;52.124;5.480;2023-02-15T01:23:15;102910.16;;;-0.61;69.79
76637;BME280;65532;52.124;5.480;2023-02-15T01:25:42;102900.91;;;-0.68;70.31
76637;BME280;65532;52.124;5.480;2023-02-15T01:28:09;102907.38;;;-0.72;70.87
76637;BME280;65532;52.124;5.480;2023-02-15T01:30:37;102901.97;;;-0.71;70.72
76637;BME280;65532;52.124;5.480;2023-02-15T01:33:04;102904.72;;;-0.72;71.29
76637;BME280;65532;52.124;5.480;2023-02-15T01:35:31;102891.09;;;-0.80;72.03
76637;BME280;65532;52.124;5.480;2023-02-15T01:37:57;102886.22;;;-0.86;70.58
76637;BME280;65532;52.124;5.480;2023-02-15T01:40:25;102883.44;;;-0.85;68.57
76637;BME280;65532;52.124;5.480;2023-02-15T01:42:52;102884.94;;;-0.81;67.40
76637;BME280;65532;52.124;5.480;2023-02-15T01:45:28;102887.47;;;-0.79;66.26
76637;BME280;65532;52.124;5.480;2023-02-15T01:47:59;102887.69;;;-0.82;66.25
76637;BME280;65532;52.124;5.480;2023-02-15T01:50:32;102887.69;;;-0.82;65.77
76637;BME280;65532;52.124;5.480;2023-02-15T01:53:12;102878.88;;;-0.83;65.38
76637;BME280;65532;52.124;5.480;2023-02-15T01:55:50;102871.97;;;-0.85;65.37
76637;BME280;65532;52.124;5.480;2023-02-15T01:58:19;102873.56;;;-0.83;65.62
76637;BME280;65532;52.124;5.480;2023-02-15T02:00:47;102870.06;;;-0.83;64.41
76637;BME280;65532;52.124;5.480;2023-02-15T02:03:14;102869.19;;;-0.84;63.38
76637;BME280;65532;52.124;5.480;2023-02-15T02:05:41;102869.84;;;-0.80;61.69
76637;BME280;65532;52.124;5.480;2023-02-15T02:08:07;102868.78;;;-0.78;60.59
76637;BME280;65532;52.124;5.480;2023-02-15T02:10:37;102869.84;;;-0.80;59.81
76637;BME280;65532;52.124;5.480;2023-02-15T02:13:05;102865.28;;;-0.78;58.48
76637;BME280;65532;52.124;5.480;2023-02-15T02:15:47;102867.19;;;-0.80;57.93
76637;BME280;65532;52.124;5.480;2023-02-15T02:18:34;102856.03;;;-0.85;58.36
76637;BME280;65532;52.124;5.480;2023-02-15T02:27:21;102857.94;;;-1.00;62.50
76637;BME280;65532;52.124;5.480;2023-02-15T02:35:08;102835.19;;;-0.92;57.76
76637;BME280;65532;52.124;5.480;2023-02-15T02:38:03;102838.16;;;-0.83;53.72
76637;BME280;65532;52.124;5.480;2023-02-15T02:43:31;102828.81;;;-0.76;46.95
76637;BME280;65532;52.124;5.480;2023-02-15T02:46:08;102823.56;;;-0.65;43.65
76637;BME280;65532;52.124;5.480;2023-02-15T02:48:37;102821.72;;;-0.52;40.03
76637;BME280;65532;52.124;5.480;2023-02-15T02:51:04;102818.00;;;-0.49;34.15
76637;BME280;65532;52.124;5.480;2023-02-15T02:53:32;102818.66;;;-0.46;32.00
76637;BME280;65532;52.124;5.480;2023-02-15T02:56:04;102812.97;;;-0.41;29.88
76637;BME280;65532;52.124;5.480;2023-02-15T02:58:46;102814.34;;;-0.36;24.99
76637;BME280;65532;52.124;5.480;2023-02-15T03:01:28;102809.56;;;-0.31;17.68
76637;BME280;65532;52.124;5.480;2023-02-15T03:03:59;102806.47;;;-0.37;15.82
76637;BME280;65532;52.124;5.480;2023-02-15T03:06:40;102803.66;;;-0.47;17.31
76637;BME280;65532;52.124;5.480;2023-02-15T03:09:12;102802.38;;;-0.54;17.84
76637;BME280;65532;52.124;5.480;2023-02-15T03:11:43;102804.53;;;-0.59;18.59
76637;BME280;65532;52.124;5.480;2023-02-15T03:14:12;102805.72;;;-0.63;19.55
76637;BME280;65532;52.124;5.480;2023-02-15T03:16:41;102797.31;;;-0.82;23.38
76637;BME280;65532;52.124;5.480;2023-02-15T03:19:15;102802.84;;;-0.85;22.49
76637;BME280;65532;52.124;5.480;2023-02-15T03:21:50;102791.38;;;-0.86;25.19
76637;BME280;65532;52.124;5.480;2023-02-15T03:24:40;102788.72;;;-0.86;27.07
76637;BME280;65532;52.124;5.480;2023-02-15T03:27:16;102784.69;;;-0.92;29.31
76637;BME280;65532;52.124;5.480;2023-02-15T03:29:47;102784.97;;;-0.83;26.23
76637;BME280;65532;52.124;5.480;2023-02-15T03:32:16;102786.88;;;-0.73;24.83
76637;BME280;65532;52.124;5.480;2023-02-15T03:34:44;102783.59;;;-0.76;26.41
76637;BME280;65532;52.124;5.480;2023-02-15T03:37:41;102786.44;;;-0.79;27.14
76637;BME280;65532;52.124;5.480;2023-02-15T03:40:24;102784.75;;;-0.80;28.08
76637;BME280;65532;52.124;5.480;2023-02-15T03:43:21;102778.34;;;-0.65;25.32
76637;BME280;65532;52.124;5.480;2023-02-15T03:45:52;102773.13;;;-0.54;22.46
76637;BME280;65532;52.124;5.480;2023-02-15T03:48:29;102777.56;;;-0.42;16.83
76637;BME280;65532;52.124;5.480;2023-02-15T03:51:05;102772.31;;;-0.31;14.09
76637;BME280;65532;52.124;5.480;2023-02-15T03:53:52;102775.50;;;-0.38;15.63
76637;BME280;65532;52.124;5.480;2023-02-15T03:56:19;102773.84;;;-0.52;17.24
76637;BME280;65532;52.124;5.480;2023-02-15T03:58:45;102767.06;;;-0.56;16.13
76637;BME280;65532;52.124;5.480;2023-02-15T04:01:37;102765.97;;;-0.53;15.51
76637;BME280;65532;52.124;5.480;2023-02-15T04:04:44;102768.38;;;-0.38;12.25
76637;BME280;65532;52.124;5.480;2023-02-15T04:07:11;102758.47;;;-0.36;10.82
76637;BME280;65532;52.124;5.480;2023-02-15T04:09:38;102760.81;;;-0.31;9.79
76637;BME280;65532;52.124;5.480;2023-02-15T04:12:23;102764.63;;;-0.35;10.32
76637;BME280;65532;52.124;5.480;2023-02-15T04:14:49;102758.69;;;-0.39;10.46
76637;BME280;65532;52.124;5.480;2023-02-15T04:17:36;102760.63;;;-0.41;10.43
76637;BME280;65532;52.124;5.480;2023-02-15T04:20:03;102757.97;;;-0.41;9.15
76637;BME280;65532;52.124;5.480;2023-02-15T04:22:49;102758.69;;;-0.39;6.39
76637;BME280;65532;52.124;5.480;2023-02-15T04:25:33;102755.91;;;-0.37;6.71
76637;BME280;65532;52.124;5.480;2023-02-15T04:28:00;102755.06;;;-0.38;5.13
76637;BME280;65532;52.124;5.480;2023-02-15T04:30:26;102754.34;;;-0.40;4.01
76637;BME280;65532;52.124;5.480;2023-02-15T04:32:54;102756.38;;;-0.43;5.58
76637;BME280;65532;52.124;5.480;2023-02-15T04:35:21;102753.25;;;-0.61;7.64
76637;BME280;65532;52.124;5.480;2023-02-15T04:37:48;102760.06;;;-0.70;6.19
76637;BME280;65532;52.124;5.480;2023-02-15T04:40:15;102761.06;;;-0.83;8.09
76637;BME280;65532;52.124;5.480;2023-02-15T04:42:47;102748.72;;;-0.84;8.00
76637;BME280;65532;52.124;5.480;2023-02-15T04:45:14;102748.38;;;-0.80;8.50
76637;BME280;65532;52.124;5.480;2023-02-15T04:47:41;102751.47;;;-0.73;8.31
76637;BME280;65532;52.124;5.480;2023-02-15T04:50:07;102741.53;;;-0.58;4.39
76637;BME280;65532;52.124;5.480;2023-02-15T04:52:34;102744.78;;;-0.42;2.47
76637;BME280;65532;52.124;5.480;2023-02-15T04:55:00;102739.28;;;-0.28;0.00
76637;BME280;65532;52.124;5.480;2023-02-15T04:57:27;102730.41;;;-0.16;8.69
76637;BME280;65532;52.124;5.480;2023-02-15T04:59:53;102730.44;;;-0.05;18.33
76637;BME280;65532;52.124;5.480;2023-02-15T05:02:20;102730.13;;;0.11;25.77
76637;BME280;65532;52.124;5.480;2023-02-15T05:04:46;102728.97;;;0.26;33.66
76637;BME280;65532;52.124;5.480;2023-02-15T05:07:13;102727.38;;;0.24;30.94
76637;BME280;65532;52.124;5.480;2023-02-15T05:09:40;102729.44;;;0.32;31.64
76637;BME280;65532;52.124;5.480;2023-02-15T05:12:07;102736.38;;;0.34;29.42
76637;BME280;65532;52.124;5.480;2023-02-15T05:14:33;102728.03;;;0.39;25.52
76637;BME280;65532;52.124;5.480;2023-02-15T05:17:00;102728.88;;;0.39;22.48
76637;BME280;65532;52.124;5.480;2023-02-15T05:19:27;102719.78;;;0.42;16.17
76637;BME280;65532;52.124;5.480;2023-02-15T05:21:54;102720.75;;;0.41;14.12
76637;BME280;65532;52.124;5.480;2023-02-15T05:24:20;102710.97;;;0.41;8.39
76637;BME280;65532;52.124;5.480;2023-02-15T05:27:06;102715.19;;;0.44;4.42
76637;BME280;65532;52.124;5.480;2023-02-15T05:29:52;102715.44;;;0.41;1.43
76637;BME280;65532;52.124;5.480;2023-02-15T05:32:18;102717.63;;;0.36;0.00
76637;BME280;65532;52.124;5.480;2023-02-15T05:34:45;102732.09;;;0.32;0.00
76637;BME280;65532;52.124;5.480;2023-02-15T05:37:11;102723.63;;;0.26;0.00
76637;BME280;65532;52.124;5.480;2023-02-15T05:39:38;102724.34;;;0.28;0.00
76637;BME280;65532;52.124;5.480;2023-02-15T05:42:04;102725.56;;;0.24;0.00
76637;BME280;65532;52.124;5.480;2023-02-15T05:44:31;102722.41;;;0.19;0.00
76637;BME280;65532;52.124;5.480;2023-02-15T05:46:57;102725.31;;;0.16;0.00
76637;BME280;65532;52.124;5.480;2023-02-15T05:49:23;102725.94;;;0.20;0.00
76637;BME280;65532;52.124;5.480;2023-02-15T05:51:50;102725.31;;;0.27;0.00
76637;BME280;65532;52.124;5.480;2023-02-15T05:54:16;102720.03;;;0.39;0.00
76637;BME280;65532;52.124;5.480;2023-02-15T05:56:43;102724.41;;;0.40;0.00
76637;BME280;65532;52.124;5.480;2023-02-15T05:59:09;102730.31;;;0.43;0.00
76637;BME280;65532;52.124;5.480;2023-02-15T06:01:36;102721.59;;;0.41;0.00
76637;BME280;65532;52.124;5.480;2023-02-15T06:04:02;102719.91;;;0.40;0.00
76637;BME280;65532;52.124;5.480;2023-02-15T06:06:29;102713.75;;;0.40;0.00
76637;BME280;65532;52.124;5.480;2023-02-15T06:08:55;102712.16;;;0.37;0.00
76637;BME280;65532;52.124;5.480;2023-02-15T06:11:21;102717.84;;;0.33;0.00
76637;BME280;65532;52.124;5.480;2023-02-15T06:13:48;102720.59;;;0.31;0.00
76637;BME280;65532;52.124;5.480;2023-02-15T06:16:14;102720.59;;;0.31;0.00
76637;BME280;65532;52.124;5.480;2023-02-15T06:18:42;102715.06;;;0.34;0.00
76637;BME280;65532;52.124;5.480;2023-02-15T06:21:09;102715.69;;;0.38;0.00
76637;BME280;65532;52.124;5.480;2023-02-15T06:23:35;102713.00;;;0.38;0.00
76637;BME280;65532;52.124;5.480;2023-02-15T06:26:02;102710.59;;;0.35;0.00
76637;BME280;65532;52.124;5.480;2023-02-15T06:28:28;102703.78;;;0.30;0.00
76637;BME280;65532;52.124;5.480;2023-02-15T06:30:55;102705.72;;;0.28;0.00
76637;BME280;65532;52.124;5.480;2023-02-15T06:33:22;102699.53;;;0.28;0.00
76637;BME280;65532;52.124;5.480;2023-02-15T06:35:48;102697.59;;;0.30;0.00
76637;BME280;65532;52.124;5.480;2023-02-15T06:38:15;102705.97;;;0.25;0.00
76637;BME280;65532;52.124;5.480;2023-02-15T06:40:41;102703.41;;;0.24;0.00
76637;BME280;65532;52.124;5.480;2023-02-15T06:43:08;102705.97;;;0.25;0.90
76637;BME280;65532;52.124;5.480;2023-02-15T06:45:34;102709.59;;;0.24;0.00
76637;BME280;65532;52.124;5.480;2023-02-15T06:48:01;102703.06;;;0.28;1.24
76637;BME280;65532;52.124;5.480;2023-02-15T06:50:27;102707.41;;;0.29;1.63
76637;BME280;65532;52.124;5.480;2023-02-15T06:52:57;102703.91;;;0.29;1.49
76637;BME280;65532;52.124;5.480;2023-02-15T06:55:24;102700.38;;;0.28;0.00
76637;BME280;65532;52.124;5.480;2023-02-15T06:57:51;102704.88;;;0.28;0.00
76637;BME280;65532;52.124;5.480;2023-02-15T07:00:18;102700.38;;;0.28;0.00
76637;BME280;65532;52.124;5.480;2023-02-15T07:02:44;102706.56;;;0.29;0.00
76637;BME280;65532;52.124;5.480;2023-02-15T07:05:11;102699.31;;;0.31;0.00
76637;BME280;65532;52.124;5.480;2023-02-15T07:07:38;102699.09;;;0.34;0.00
76637;BME280;65532;52.124;5.480;2023-02-15T07:10:05;102699.69;;;0.38;0.00
76637;BME280;65532;52.124;5.480;2023-02-15T07:12:31;102700.53;;;0.38;0.00
76637;BME280;65532;52.124;5.480;2023-02-15T07:15:15;102697.16;;;0.36;3.67
76637;BME280;65532;52.124;5.480;2023-02-15T07:17:42;102702.34;;;0.38;8.61
76637;BME280;65532;52.124;5.480;2023-02-15T07:20:14;102701.38;;;0.39;15.37
76637;BME280;65532;52.124;5.480;2023-02-15T07:22:41;102702.22;;;0.39;20.56
76637;BME280;65532;52.124;5.480;2023-02-15T07:25:10;102704.53;;;0.44;16.86
76637;BME280;65532;52.124;5.480;2023-02-15T07:27:37;102697.91;;;0.49;17.60
76637;BME280;65532;52.124;5.480;2023-02-15T07:30:05;102698.97;;;0.58;13.37
76637;BME280;65532;52.124;5.480;2023-02-15T07:32:32;102692.22;;;0.65;9.12
76637;BME280;65532;52.124;5.480;2023-02-15T07:34:59;102688.09;;;0.72;7.72
76637;BME280;65532;52.124;5.480;2023-02-15T07:37:27;102681.53;;;0.76;12.93
76637;BME280;65532;52.124;5.480;2023-02-15T07:39:53;102682.53;;;0.98;9.99
76637;BME280;65532;52.124;5.480;2023-02-15T07:42:20;102664.03;;;1.28;13.60
76637;BME280;65532;52.124;5.480;2023-02-15T07:44:47;102667.13;;;1.44;22.96
76637;BME280;65532;52.124;5.480;2023-02-15T07:47:14;102657.31;;;1.45;35.92
76637;BME280;65532;52.124;5.480;2023-02-15T07:49:40;102658.94;;;1.57;34.13
76637;BME280;65532;52.124;5.480;2023-02-15T07:52:07;102665.31;;;1.77;32.93
76637;BME280;65532;52.124;5.480;2023-02-15T07:54:33;102665.38;;;1.87;39.70
76637;BME280;65532;52.124;5.480;2023-02-15T07:57:00;102664.75;;;1.94;41.51
76637;BME280;65532;52.124;5.480;2023-02-15T07:59:28;102656.13;;;2.12;44.94
76637;BME280;65532;52.124;5.480;2023-02-15T08:01:54;102659.06;;;2.29;47.90
76637;BME280;65532;52.124;5.480;2023-02-15T08:04:22;102661.19;;;2.35;57.15
76637;BME280;65532;52.124;5.480;2023-02-15T08:06:52;102662.66;;;2.49;57.06
76637;BME280;65532;52.124;5.480;2023-02-15T08:09:20;102657.44;;;2.68;63.58
76637;BME280;65532;52.124;5.480;2023-02-15T08:11:47;102650.94;;;3.02;62.92
76637;BME280;65532;52.124;5.480;2023-02-15T08:14:20;102643.38;;;3.45;70.44
76637;BME280;65532;52.124;5.480;2023-02-15T08:16:50;102643.53;;;3.73;79.33
76637;BME280;65532;52.124;5.480;2023-02-15T08:21:53;102647.53;;;4.25;85.40
76637;BME280;65532;52.124;5.480;2023-02-15T08:24:21;102646.31;;;4.57;86.83
76637;BME280;65532;52.124;5.480;2023-02-15T08:26:49;102647.44;;;4.91;88.14
76637;BME280;65532;52.124;5.480;2023-02-15T08:29:17;102637.38;;;5.21;88.77
76637;BME280;65532;52.124;5.480;2023-02-15T08:31:45;102634.31;;;5.87;89.33
76637;BME280;65532;52.124;5.480;2023-02-15T08:34:17;102632.41;;;6.49;90.97
76637;BME280;65532;52.124;5.480;2023-02-15T08:36:44;102632.38;;;7.33;90.71
76637;BME280;65532;52.124;5.480;2023-02-15T08:39:15;102631.06;;;7.70;88.83
76637;BME280;65532;52.124;5.480;2023-02-15T08:41:43;102626.19;;;7.90;87.80
76637;BME280;65532;52.124;5.480;2023-02-15T08:44:10;102623.94;;;8.34;86.22
76637;BME280;65532;52.124;5.480;2023-02-15T08:46:40;102626.28;;;8.53;83.11
76637;BME280;65532;52.124;5.480;2023-02-15T08:49:12;102624.91;;;8.57;82.42
76637;BME280;65532;52.124;5.480;2023-02-15T08:51:39;102626.84;;;8.80;80.54
76637;BME280;65532;52.124;5.480;2023-02-15T08:54:08;102617.97;;;9.02;80.61
76637;BME280;65532;52.124;5.480;2023-02-15T08:56:37;102612.72;;;9.32;79.47
76637;BME280;65532;52.124;5.480;2023-02-15T08:59:04;102625.31;;;9.47;76.31
76637;BME280;65532;52.124;5.480;2023-02-15T09:01:33;102618.97;;;9.55;77.49
76637;BME280;65532;52.124;5.480;2023-02-15T09:04:07;102624.72;;;9.29;77.28
76637;BME280;65532;52.124;5.480;2023-02-15T09:06:37;102616.69;;;8.90;78.14
76637;BME280;65532;52.124;5.480;2023-02-15T09:09:04;102605.56;;;8.85;79.35
76637;BME280;65532;52.124;5.480;2023-02-15T09:11:35;102603.94;;;9.29;77.86
76637;BME280;65532;52.124;5.480;2023-02-15T09:14:04;102601.06;;;9.54;78.82
76637;BME280;65532;52.124;5.480;2023-02-15T09:16:33;102599.50;;;9.59;74.27
76637;BME280;65532;52.124;5.480;2023-02-15T09:19:01;102604.63;;;9.32;74.91
76637;BME280;65532;52.124;5.480;2023-02-15T09:21:28;102611.00;;;9.08;75.25
76637;BME280;65532;52.124;5.480;2023-02-15T09:23:57;102593.75;;;9.40;75.25
76637;BME280;65532;52.124;5.480;2023-02-15T09:26:27;102596.28;;;9.64;74.31
76637;BME280;65532;52.124;5.480;2023-02-15T09:28:56;102596.97;;;9.58;74.96
76637;BME280;65532;52.124;5.480;2023-02-15T09:31:25;102602.38;;;9.58;72.05
76637;BME280;65532;52.124;5.480;2023-02-15T09:33:52;102598.28;;;9.85;72.65
76637;BME280;65532;52.124;5.480;2023-02-15T09:36:23;102595.66;;;9.54;76.45
76637;BME280;65532;52.124;5.480;2023-02-15T09:38:55;102593.16;;;9.52;75.63
76637;BME280;65532;52.124;5.480;2023-02-15T09:58:20;102599.72;;;8.65;79.04
76637;BME280;65532;52.124;5.480;2023-02-15T10:03:53;102593.59;;;8.16;81.43
76637;BME280;65532;52.124;5.480;2023-02-15T10:06:42;102599.69;;;8.09;82.65
76637;BME280;65532;52.124;5.480;2023-02-15T10:15:31;102615.47;;;8.92;78.92
76637;BME280;65532;52.124;5.480;2023-02-15T10:23:31;102612.47;;;9.18;76.85
76637;BME280;65532;52.124;5.480;2023-02-15T10:26:19;102606.97;;;9.35;76.55
76637;BME280;65532;52.124;5.480;2023-02-15T10:37:11;102601.56;;;9.35;75.76
76637;BME280;65532;52.124;5.480;2023-02-15T10:47:50;102609.81;;;9.10;74.88
76637;BME280;65532;52.124;5.480;2023-02-15T10:56:34;102598.41;;;9.46;74.13
76637;BME280;65532;52.124;5.480;2023-02-15T11:04:40;102588.81;;;9.20;74.92
76637;BME280;65532;52.124;5.480;2023-02-15T11:07:37;102587.38;;;9.33;74.52
76637;BME280;65532;52.124;5.480;2023-02-15T11:10:30;102585.91;;;9.45;75.00
76637;BME280;65532;52.124;5.480;2023-02-15T11:13:06;102583.16;;;9.53;74.64
76637;BME280;65532;52.124;5.480;2023-02-15T11:18:32;102580.22;;;9.63;73.83
76637;BME280;65532;52.124;5.480;2023-02-15T11:21:31;102586.75;;;9.68;74.46
76637;BME280;65532;52.124;5.480;2023-02-15T11:24:00;102585.94;;;9.68;74.02
76637;BME280;65532;52.124;5.480;2023-02-15T11:26:34;102574.22;;;9.52;73.14
76637;BME280;65532;52.124;5.480;2023-02-15T11:31:42;102562.19;;;9.55;73.95
76637;BME280;65532;52.124;5.480;2023-02-15T11:34:31;102569.22;;;9.64;73.44
76637;BME280;65532;52.124;5.480;2023-02-15T11:37:05;102560.31;;;9.55;75.05
76637;BME280;65532;52.124;5.480;2023-02-15T11:39:34;102558.56;;;9.48;74.65
76637;BME280;65532;52.124;5.480;2023-02-15T11:42:09;102551.56;;;9.53;75.41
76637;BME280;65532;52.124;5.480;2023-02-15T11:44:42;102552.25;;;9.70;74.32
76637;BME280;65532;52.124;5.480;2023-02-15T11:47:13;102545.09;;;9.92;74.66
76637;BME280;65532;52.124;5.480;2023-02-15T11:49:40;102535.53;;;10.19;73.69
76637;BME280;65532;52.124;5.480;2023-02-15T11:52:10;102522.97;;;10.26;73.48
76637;BME280;65532;52.124;5.480;2023-02-15T11:54:49;102514.44;;;10.00;74.62
76637;BME280;65532;52.124;5.480;2023-02-15T11:57:22;102516.94;;;10.16;74.07
76637;BME280;65532;52.124;5.480;2023-02-15T11:59:55;102509.44;;;10.26;72.52
76637;BME280;65532;52.124;5.480;2023-02-15T12:02:23;102514.63;;;10.42;72.70
76637;BME280;65532;52.124;5.480;2023-02-15T12:04:56;102494.34;;;10.53;71.53
76637;BME280;65532;52.124;5.480;2023-02-15T12:07:36;102498.44;;;10.64;71.53
76637;BME280;65532;52.124;5.480;2023-02-15T12:10:28;102489.75;;;10.54;72.94
76637;BME280;65532;52.124;5.480;2023-02-15T12:15:44;102498.69;;;10.69;70.21
76637;BME280;65532;52.124;5.480;2023-02-15T12:18:36;102501.75;;;10.80;70.65
76637;BME280;65532;52.124;5.480;2023-02-15T12:21:14;102501.81;;;10.87;69.28
76637;BME280;65532;52.124;5.480;2023-02-15T12:23:48;102486.47;;;10.94;69.45
76637;BME280;65532;52.124;5.480;2023-02-15T12:26:24;102490.34;;;11.06;68.88
76637;BME280;65532;52.124;5.480;2023-02-15T12:28:52;102493.16;;;11.20;68.32
76637;BME280;65532;52.124;5.480;2023-02-15T12:31:27;102486.78;;;11.27;67.68
76637;BME280;65532;52.124;5.480;2023-02-15T12:33:56;102482.72;;;11.38;67.75
76637;BME280;65532;52.124;5.480;2023-02-15T12:36:25;102478.97;;;11.39;67.66
76637;BME280;65532;52.124;5.480;2023-02-15T12:45:19;102472.09;;;11.43;65.76
76637;BME280;65532;52.124;5.480;2023-02-15T12:49:41;102470.94;;;11.52;65.65
76637;BME280;65532;52.124;5.480;2023-02-15T12:54:49;102466.53;;;11.51;66.61
76637;BME280;65532;52.124;5.480;2023-02-15T12:57:27;102462.00;;;11.58;65.72
76637;BME280;65532;52.124;5.480;2023-02-15T13:00:24;102459.28;;;11.58;65.48
76637;BME280;65532;52.124;5.480;2023-02-15T13:02:51;102456.56;;;11.58;66.56
76637;BME280;65532;52.124;5.480;2023-02-15T13:05:25;102463.06;;;11.64;66.32
76637;BME280;65532;52.124;5.480;2023-02-15T13:07:56;102460.31;;;11.57;66.13
76637;BME280;65532;52.124;5.480;2023-02-15T13:10:27;102460.25;;;11.51;65.56
76637;BME280;65532;52.124;5.480;2023-02-15T13:12:56;102460.63;;;11.41;66.63
76637;BME280;65532;52.124;5.480;2023-02-15T13:15:38;102452.56;;;11.26;67.93
76637;BME280;65532;52.124;5.480;2023-02-15T13:18:13;102454.22;;;11.21;67.99
76637;BME280;65532;52.124;5.480;2023-02-15T13:20:42;102445.78;;;11.37;67.75
76637;BME280;65532;52.124;5.480;2023-02-15T13:23:22;102433.50;;;11.41;67.96
76637;BME280;65532;52.124;5.480;2023-02-15T13:25:51;102428.47;;;11.38;68.87
76637;BME280;65532;52.124;5.480;2023-02-15T13:28:20;102438.53;;;11.44;67.72
76637;BME280;65532;52.124;5.480;2023-02-15T13:30:48;102430.63;;;11.49;67.43
76637;BME280;65532;52.124;5.480;2023-02-15T13:33:31;102435.00;;;11.50;67.40
76637;BME280;65532;52.124;5.480;2023-02-15T13:36:05;102430.63;;;11.49;66.82
76637;BME280;65532;52.124;5.480;2023-02-15T13:39:06;102439.69;;;11.35;66.41
76637;BME280;65532;52.124;5.480;2023-02-15T13:41:48;102431.97;;;11.32;67.13
76637;BME280;65532;52.124;5.480;2023-02-15T13:53:11;102422.84;;;11.39;68.48
76637;BME280;65532;52.124;5.480;2023-02-15T13:55:51;102422.84;;;11.39;68.25
76637;BME280;65532;52.124;5.480;2023-02-15T14:01:19;102426.13;;;11.35;68.27
76637;BME280;65532;52.124;5.480;2023-02-15T14:04:06;102423.81;;;11.32;68.12
76637;BME280;65532;52.124;5.480;2023-02-15T14:07:03;102422.31;;;11.23;69.50
76637;BME280;65532;52.124;5.480;2023-02-15T14:17:55;102413.28;;;11.16;70.16
76637;BME280;65532;52.124;5.480;2023-02-15T14:23:43;102415.16;;;11.15;69.90
76637;BME280;65532;52.124;5.480;2023-02-15T14:29:27;102412.00;;;11.12;70.16
76637;BME280;65532;52.124;5.480;2023-02-15T14:32:04;102406.19;;;11.15;70.71
76637;BME280;65532;52.124;5.480;2023-02-15T14:34:54;102414.94;;;11.17;70.71
76637;BME280;65532;52.124;5.480;2023-02-15T14:40:01;102416.19;;;11.14;70.93
76637;BME280;65532;52.124;5.480;2023-02-15T14:42:58;102408.66;;;11.09;70.49
76637;BME280;65532;52.124;5.480;2023-02-15T14:48:33;102405.63;;;10.98;70.73
76637;BME280;65532;52.124;5.480;2023-02-15T14:51:02;102403.31;;;10.95;70.76
76637;BME280;65532;52.124;5.480;2023-02-15T14:58:37;102403.50;;;10.93;71.41
76637;BME280;65532;52.124;5.480;2023-02-15T15:01:09;102403.44;;;10.87;71.48
76637;BME280;65532;52.124;5.480;2023-02-15T15:03:43;102399.25;;;10.84;71.95
76637;BME280;65532;52.124;5.480;2023-02-15T15:06:42;102394.22;;;10.81;72.19
76637;BME280;65532;52.124;5.480;2023-02-15T15:09:27;102406.69;;;10.75;72.12
76637;BME280;65532;52.124;5.480;2023-02-15T15:12:13;102402.84;;;10.70;72.66
76637;BME280;65532;52.124;5.480;2023-02-15T15:14:42;102409.06;;;10.64;72.58
76637;BME280;65532;52.124;5.480;2023-02-15T15:17:12;102401.72;;;10.58;72.86
76637;BME280;65532;52.124;5.480;2023-02-15T15:22:23;102403.69;;;10.49;73.37
76637;BME280;65532;52.124;5.480;2023-02-15T15:27:49;102405.84;;;10.39;74.02
76637;BME280;65532;52.124;5.480;2023-02-15T15:47:18;102395.81;;;10.18;75.57
76637;BME280;65532;52.124;5.480;2023-02-15T15:49:49;102398.91;;;10.15;75.69
76637;BME280;65532;52.124;5.480;2023-02-15T15:52:18;102395.94;;;10.10;75.77
76637;BME280;65532;52.124;5.480;2023-02-15T15:54:48;102401.69;;;10.07;76.38
76637;BME280;65532;52.124;5.480;2023-02-15T15:57:31;102397.69;;;10.03;76.35
76637;BME280;65532;52.124;5.480;2023-02-15T15:59:59;102402.47;;;10.01;76.58